Redstone, Colorado
Current Conditions -  °F | °C
As of 6:53 PM on Tuesday 25 Nov 2014 (Local Time) from KASE Reporting Station
Light Snow Light Snow  
Wind Chill: 16°   Ceiling: 1500
Heat Index: 22°   Visibility: 1.5mi
Dew Point: 19°   Wind: 5mph
Humidity: 89%   Direction: 350°N
Pressure: 30.26"   Gusts: NA
Location:  39.2397°N, 107.215°W
Report Text: KASE 260153Z 35004KT 1 1/2SM -SN BR OVC015 M06/M07 A3026 RMK AO2 SLP278 P0002 T10561072
Loading
Personal Weather Stations






























Interactive Weather Map New forecast layout! Learn more

10-Day Weather Forecast

Advertisements
Track Severe Weather on mobile